Time;durP1;ratioP1;P1;durP2;ratioP2;P2;SDS_P1;SDS_P2;PMS_P1;PMS_P2;Temp;Humidity;BMP_temperature;BMP_pressure;BME280_temperature;BME280_humidity;BME280_pressure;Samples;Min_cycle;Max_cycle;Signal;HPM_P1;HPM_P2
2023/04/24 00:01:07;;;;;;;5.07;2.13;;;;;;;;;;5014619;28;20414;-43
2023/04/24 00:03:33;;;;;;;4.70;1.97;;;;;;;;;;5019115;28;20465;-43
2023/04/24 00:06:00;;;;;;;2.70;2.17;;;;;;;;;;5023889;28;20414;-44
2023/04/24 00:08:26;;;;;;;2.93;2.40;;;;;;;;;;5024002;28;20914;-44
2023/04/24 00:10:52;;;;;;;2.73;2.13;;;;;;;;;;5021387;28;20880;-43
2023/04/24 00:13:18;;;;;;;3.93;2.97;;;;;;;;;;5019855;28;20457;-43
2023/04/24 00:15:44;;;;;;;2.30;2.00;;;;;;;;;;5018253;28;20418;-43
2023/04/24 00:18:10;;;;;;;5.67;4.40;;;;;;;;;;5011543;28;20442;-43
2023/04/24 00:20:37;;;;;;;3.80;2.70;;;;;;;;;;5024306;28;20410;-43
2023/04/24 00:23:03;;;;;;;2.63;2.23;;;;;;;;;;5018224;28;20418;-43
2023/04/24 00:25:29;;;;;;;6.70;2.73;;;;;;;;;;5020131;28;20413;-43
2023/04/24 00:27:55;;;;;;;4.30;2.80;;;;;;;;;;5021723;28;20423;-43
2023/04/24 00:30:21;;;;;;;3.00;2.40;;;;;;;;;;5016559;28;20415;-43
2023/04/24 00:32:47;;;;;;;2.97;2.40;;;;;;;;;;5015684;28;20402;-43
2023/04/24 00:35:14;;;;;;;2.67;2.47;;;;;;;;;;5020640;28;20418;-43
2023/04/24 00:37:40;;;;;;;3.50;2.83;;;;;;;;;;5025245;28;20794;-42
2023/04/24 00:40:06;;;;;;;4.27;2.73;;;;;;;;;;5010130;28;20418;-42
2023/04/24 00:42:33;;;;;;;4.27;2.60;;;;;;;;;;5012350;28;20495;-42
2023/04/24 00:44:59;;;;;;;2.30;2.10;;;;;;;;;;5018469;28;20874;-42
2023/04/24 00:47:25;;;;;;;4.17;2.63;;;;;;;;;;5017778;28;20482;-43
2023/04/24 00:49:51;;;;;;;4.37;2.70;;;;;;;;;;5021943;28;20496;-44
2023/04/24 00:52:17;;;;;;;7.63;2.20;;;;;;;;;;5023954;28;20495;-42
2023/04/24 00:54:46;;;;;;;3.90;2.83;;;;;;;;;;5021909;28;20793;-42
2023/04/24 00:57:13;;;;;;;2.40;2.20;;;;;;;;;;5015496;28;20418;-43
2023/04/24 00:59:40;;;;;;;4.40;2.90;;;;;;;;;;5010504;28;20420;-42
2023/04/24 01:02:07;;;;;;;3.57;2.97;;;;;;;;;;5015751;28;20452;-43
2023/04/24 01:04:33;;;;;;;3.40;2.67;;;;;;;;;;5014362;28;20451;-43
2023/04/24 01:06:59;;;;;;;3.10;2.77;;;;;;;;;;5021950;28;20472;-44
2023/04/24 01:09:25;;;;;;;5.70;3.17;;;;;;;;;;5018577;28;20438;-44
2023/04/24 01:11:51;;;;;;;3.40;2.77;;;;;;;;;;5023715;28;20406;-43
2023/04/24 01:14:18;;;;;;;5.77;3.83;;;;;;;;;;5008836;28;20905;-44
2023/04/24 01:16:44;;;;;;;4.33;2.90;;;;;;;;;;5016433;28;20841;-43
2023/04/24 01:19:11;;;;;;;3.30;2.57;;;;;;;;;;5021614;28;20446;-43
2023/04/24 01:21:37;;;;;;;5.27;3.10;;;;;;;;;;5017591;28;20773;-43
2023/04/24 01:24:04;;;;;;;3.00;2.53;;;;;;;;;;5023265;28;20477;-43
2023/04/24 01:26:30;;;;;;;6.20;2.80;;;;;;;;;;5015622;28;20411;-43
2023/04/24 01:28:56;;;;;;;4.03;3.10;;;;;;;;;;5015185;28;20440;-42
2023/04/24 01:31:23;;;;;;;3.87;2.90;;;;;;;;;;5009980;28;20966;-44
2023/04/24 01:33:49;;;;;;;3.67;2.93;;;;;;;;;;5020430;28;20758;-43
2023/04/24 01:36:16;;;;;;;4.20;3.10;;;;;;;;;;5018745;28;20414;-43
2023/04/24 01:38:43;;;;;;;4.70;3.53;;;;;;;;;;5013486;28;20438;-42
2023/04/24 01:41:09;;;;;;;3.80;3.40;;;;;;;;;;5018974;28;20403;-42
2023/04/24 01:43:35;;;;;;;3.63;2.90;;;;;;;;;;5017262;28;20549;-43
2023/04/24 01:46:01;;;;;;;3.43;2.83;;;;;;;;;;5006601;28;20974;-43
2023/04/24 01:48:27;;;;;;;4.60;3.10;;;;;;;;;;5020881;28;20534;-43
2023/04/24 01:50:53;;;;;;;5.40;3.73;;;;;;;;;;5021791;28;20837;-43
2023/04/24 01:53:19;;;;;;;4.40;3.10;;;;;;;;;;5016067;28;20406;-43
2023/04/24 01:55:45;;;;;;;4.73;3.23;;;;;;;;;;5023208;28;20448;-43
2023/04/24 01:58:11;;;;;;;6.10;4.77;;;;;;;;;;5031083;28;20835;-43
2023/04/24 02:00:37;;;;;;;3.40;3.07;;;;;;;;;;5031437;28;20410;-43
2023/04/24 02:03:03;;;;;;;4.20;3.30;;;;;;;;;;5031254;28;20410;-43
2023/04/24 02:05:29;;;;;;;3.17;2.87;;;;;;;;;;5031532;28;21188;-42
2023/04/24 02:07:55;;;;;;;4.40;3.67;;;;;;;;;;5031157;28;20419;-43
2023/04/24 02:10:21;;;;;;;3.67;3.30;;;;;;;;;;5031204;28;20402;-43
2023/04/24 02:12:47;;;;;;;3.73;3.23;;;;;;;;;;5031339;28;20811;-42
2023/04/24 02:15:13;;;;;;;4.27;3.83;;;;;;;;;;5018755;28;20763;-43
2023/04/24 02:17:39;;;;;;;5.13;4.13;;;;;;;;;;5020777;28;20848;-44
2023/04/24 02:20:06;;;;;;;6.40;3.77;;;;;;;;;;5013519;28;20413;-42
2023/04/24 02:22:32;;;;;;;4.70;4.07;;;;;;;;;;5021791;28;20451;-43
2023/04/24 02:24:58;;;;;;;6.00;4.63;;;;;;;;;;5024189;28;20823;-44
2023/04/24 02:27:24;;;;;;;6.40;4.63;;;;;;;;;;5023427;28;20853;-42
2023/04/24 02:29:50;;;;;;;7.60;4.87;;;;;;;;;;5022566;28;20826;-42
2023/04/24 02:32:16;;;;;;;7.23;4.40;;;;;;;;;;5019630;28;20409;-43
2023/04/24 02:34:42;;;;;;;6.70;5.57;;;;;;;;;;5014318;28;20495;-43
2023/04/24 02:37:08;;;;;;;6.80;6.10;;;;;;;;;;5018120;28;20420;-43
2023/04/24 02:39:34;;;;;;;8.50;4.97;;;;;;;;;;5024552;28;20454;-44
2023/04/24 02:42:01;;;;;;;7.50;5.40;;;;;;;;;;5019850;28;20494;-43
2023/04/24 02:44:27;;;;;;;11.50;4.97;;;;;;;;;;5019712;28;20459;-42
2023/04/24 02:46:53;;;;;;;8.33;6.47;;;;;;;;;;5021826;28;20491;-43
2023/04/24 02:49:19;;;;;;;8.57;5.67;;;;;;;;;;5016470;28;20422;-43
2023/04/24 02:51:45;;;;;;;9.50;7.10;;;;;;;;;;5014912;28;20419;-43
2023/04/24 02:54:11;;;;;;;8.00;6.67;;;;;;;;;;5021281;28;20441;-43
2023/04/24 02:56:37;;;;;;;9.10;6.67;;;;;;;;;;5024189;28;20419;-42
2023/04/24 02:59:03;;;;;;;10.63;6.53;;;;;;;;;;5016040;28;20466;-43
2023/04/24 03:01:29;;;;;;;13.13;7.00;;;;;;;;;;5015739;28;20447;-42
2023/04/24 03:03:55;;;;;;;10.03;6.60;;;;;;;;;;5019226;28;20461;-42
2023/04/24 03:06:21;;;;;;;9.90;6.57;;;;;;;;;;5016568;28;20422;-43
2023/04/24 03:08:47;;;;;;;10.97;6.97;;;;;;;;;;5021592;28;20760;-42
2023/04/24 03:11:13;;;;;;;11.97;6.93;;;;;;;;;;5023072;28;20850;-42
2023/04/24 03:13:39;;;;;;;12.90;9.00;;;;;;;;;;5019454;28;20458;-43
2023/04/24 03:16:05;;;;;;;10.67;7.67;;;;;;;;;;5019235;28;20416;-43
2023/04/24 03:18:31;;;;;;;12.37;9.03;;;;;;;;;;5011263;28;20457;-43
2023/04/24 03:20:57;;;;;;;16.53;9.00;;;;;;;;;;5022240;28;20447;-43
2023/04/24 03:23:23;;;;;;;11.17;8.00;;;;;;;;;;5024433;28;20444;-43
2023/04/24 03:25:51;;;;;;;13.73;8.50;;;;;;;;;;5023141;28;20510;-42
2023/04/24 03:28:17;;;;;;;18.83;13.23;;;;;;;;;;5018748;28;20930;-42
2023/04/24 03:30:42;;;;;;;12.20;8.20;;;;;;;;;;5017379;28;20460;-43
2023/04/24 03:33:09;;;;;;;13.60;8.53;;;;;;;;;;5010082;28;20406;-43
2023/04/24 03:35:36;;;;;;;14.10;8.60;;;;;;;;;;5023815;28;20938;-42
2023/04/24 03:38:04;;;;;;;12.97;9.60;;;;;;;;;;5018718;28;20548;-42
2023/04/24 03:40:30;;;;;;;15.50;9.70;;;;;;;;;;5018355;28;20423;-44
2023/04/24 03:42:56;;;;;;;14.70;8.37;;;;;;;;;;5022077;28;20439;-43
2023/04/24 03:45:22;;;;;;;15.30;9.90;;;;;;;;;;5009777;28;20521;-42
2023/04/24 03:47:47;;;;;;;10.67;7.97;;;;;;;;;;5020005;28;20442;-43
2023/04/24 03:50:13;;;;;;;18.10;9.67;;;;;;;;;;5020058;28;20414;-43
2023/04/24 03:52:39;;;;;;;15.50;9.83;;;;;;;;;;5023738;28;20594;-42
2023/04/24 03:55:06;;;;;;;14.20;9.50;;;;;;;;;;5015964;28;20431;-43
2023/04/24 03:57:32;;;;;;;14.97;9.70;;;;;;;;;;5014872;28;20485;-43
2023/04/24 03:59:58;;;;;;;13.87;8.83;;;;;;;;;;5018255;28;20508;-43
2023/04/24 04:02:24;;;;;;;19.23;10.40;;;;;;;;;;5016057;28;20402;-43
2023/04/24 04:04:50;;;;;;;13.37;9.00;;;;;;;;;;5021371;28;20510;-43
2023/04/24 04:07:16;;;;;;;16.77;10.47;;;;;;;;;;5021766;28;20780;-42
2023/04/24 04:09:42;;;;;;;14.97;10.20;;;;;;;;;;5020027;28;20442;-43
2023/04/24 04:12:08;;;;;;;13.73;8.00;;;;;;;;;;5010860;28;20401;-44
2023/04/24 04:14:34;;;;;;;16.20;11.10;;;;;;;;;;5010483;28;20493;-43
2023/04/24 04:17:00;;;;;;;14.50;9.00;;;;;;;;;;5021269;28;20833;-43
2023/04/24 04:19:26;;;;;;;13.57;9.43;;;;;;;;;;5011243;28;20498;-43
2023/04/24 04:21:53;;;;;;;13.27;10.30;;;;;;;;;;5012664;28;20446;-43
2023/04/24 04:24:20;;;;;;;18.23;10.80;;;;;;;;;;5012903;28;20873;-43
2023/04/24 04:26:47;;;;;;;17.23;10.07;;;;;;;;;;5012885;28;20509;-43
2023/04/24 04:29:13;;;;;;;13.53;9.90;;;;;;;;;;5012331;28;20421;-42
2023/04/24 04:31:39;;;;;;;14.87;10.87;;;;;;;;;;5007852;28;20914;-43
2023/04/24 04:34:05;;;;;;;14.10;9.07;;;;;;;;;;5020710;28;20402;-43
2023/04/24 04:36:32;;;;;;;19.83;11.87;;;;;;;;;;5016468;28;20426;-42
2023/04/24 04:38:59;;;;;;;16.13;10.00;;;;;;;;;;5017274;28;20501;-43
2023/04/24 04:41:26;;;;;;;14.43;10.07;;;;;;;;;;5019004;28;20473;-42
2023/04/24 04:43:52;;;;;;;13.67;9.70;;;;;;;;;;5022823;28;20468;-43
2023/04/24 04:46:18;;;;;;;12.50;9.53;;;;;;;;;;5018965;28;20935;-43
2023/04/24 04:48:44;;;;;;;18.67;10.37;;;;;;;;;;5015972;28;20578;-42
2023/04/24 04:51:10;;;;;;;15.97;9.47;;;;;;;;;;5020103;28;20421;-42
2023/04/24 04:53:36;;;;;;;17.27;11.70;;;;;;;;;;5015821;28;20407;-42
2023/04/24 04:56:02;;;;;;;17.73;11.60;;;;;;;;;;5023254;28;20413;-43
2023/04/24 04:58:28;;;;;;;12.67;10.07;;;;;;;;;;5019257;28;20444;-43
2023/04/24 05:00:54;;;;;;;18.00;10.20;;;;;;;;;;5019453;28;20417;-43
2023/04/24 05:03:20;;;;;;;13.03;10.10;;;;;;;;;;5013644;28;20444;-44
2023/04/24 05:05:46;;;;;;;18.70;10.17;;;;;;;;;;5008219;28;20406;-42
2023/04/24 05:08:12;;;;;;;18.10;11.97;;;;;;;;;;5022142;28;20499;-42
2023/04/24 05:10:38;;;;;;;13.33;9.47;;;;;;;;;;5018244;28;20405;-42
2023/04/24 05:13:04;;;;;;;14.63;10.23;;;;;;;;;;5012119;28;20483;-42
2023/04/24 05:15:30;;;;;;;13.10;9.57;;;;;;;;;;5017860;28;20425;-42
2023/04/24 05:17:56;;;;;;;17.80;10.13;;;;;;;;;;5014660;28;20494;-43
2023/04/24 05:20:22;;;;;;;15.50;9.63;;;;;;;;;;5025979;28;20828;-43
2023/04/24 05:22:48;;;;;;;15.50;9.77;;;;;;;;;;5031555;28;21065;-42
2023/04/24 05:25:14;;;;;;;12.83;9.60;;;;;;;;;;5031752;28;20536;-42
2023/04/24 05:27:40;;;;;;;12.67;9.20;;;;;;;;;;5031448;28;20437;-43
2023/04/24 05:30:07;;;;;;;13.60;9.10;;;;;;;;;;5030824;28;20481;-43
2023/04/24 05:32:33;;;;;;;10.83;9.23;;;;;;;;;;5031270;28;20433;-42
2023/04/24 05:34:59;;;;;;;14.30;8.87;;;;;;;;;;5031217;28;20406;-44
2023/04/24 05:37:25;;;;;;;14.93;9.20;;;;;;;;;;5031143;28;20460;-43
2023/04/24 05:39:51;;;;;;;12.87;9.17;;;;;;;;;;5031464;28;20831;-43
2023/04/24 05:42:17;;;;;;;11.67;9.43;;;;;;;;;;5031081;28;20530;-42
2023/04/24 05:44:43;;;;;;;17.33;10.70;;;;;;;;;;5028929;28;20825;-43
2023/04/24 05:47:09;;;;;;;11.57;8.67;;;;;;;;;;5010672;28;20495;-43
2023/04/24 05:49:35;;;;;;;15.80;9.90;;;;;;;;;;5013222;28;20462;-43
2023/04/24 05:52:02;;;;;;;13.67;9.83;;;;;;;;;;5015787;28;20405;-44
2023/04/24 05:54:28;;;;;;;17.27;10.60;;;;;;;;;;5015572;28;20446;-42
2023/04/24 05:56:55;;;;;;;14.20;10.40;;;;;;;;;;5015989;28;20434;-42
2023/04/24 05:59:21;;;;;;;18.40;10.63;;;;;;;;;;5015650;28;20589;-43
2023/04/24 06:01:47;;;;;;;15.43;11.23;;;;;;;;;;5014972;28;20924;-43
2023/04/24 06:04:13;;;;;;;19.13;11.13;;;;;;;;;;5015080;28;20453;-43
2023/04/24 06:06:40;;;;;;;15.40;11.50;;;;;;;;;;5014964;28;20409;-43
2023/04/24 06:09:06;;;;;;;13.50;9.93;;;;;;;;;;5015280;28;20416;-42
2023/04/24 06:11:32;;;;;;;12.80;9.77;;;;;;;;;;5015548;28;20457;-43
2023/04/24 06:13:58;;;;;;;17.70;10.10;;;;;;;;;;5015412;28;20440;-43
2023/04/24 06:16:24;;;;;;;18.90;10.27;;;;;;;;;;5013468;28;20433;-43
2023/04/24 06:18:50;;;;;;;16.27;10.37;;;;;;;;;;5014082;28;20460;-43
2023/04/24 06:21:17;;;;;;;14.20;8.77;;;;;;;;;;5015259;28;20402;-42
2023/04/24 06:23:43;;;;;;;10.33;7.80;;;;;;;;;;5015073;28;20453;-42
2023/04/24 06:26:08;;;;;;;13.03;8.10;;;;;;;;;;5015151;28;20454;-43
2023/04/24 06:28:34;;;;;;;11.20;7.37;;;;;;;;;;5014787;28;20457;-43
2023/04/24 06:31:00;;;;;;;10.00;7.47;;;;;;;;;;5015123;28;20413;-43
2023/04/24 06:33:26;;;;;;;9.10;7.23;;;;;;;;;;5015424;28;20403;-43
2023/04/24 06:35:52;;;;;;;10.40;7.77;;;;;;;;;;5015046;28;20401;-43
2023/04/24 06:38:18;;;;;;;13.37;9.27;;;;;;;;;;5014182;28;20424;-44
2023/04/24 06:40:44;;;;;;;9.40;7.47;;;;;;;;;;5014373;28;20898;-42
2023/04/24 06:43:10;;;;;;;10.17;7.20;;;;;;;;;;5014871;28;20402;-43
2023/04/24 06:45:36;;;;;;;9.50;8.07;;;;;;;;;;5014140;28;20469;-44
2023/04/24 06:48:02;;;;;;;9.60;7.70;;;;;;;;;;5013232;28;20436;-43
2023/04/24 06:50:28;;;;;;;12.70;8.30;;;;;;;;;;5013848;28;20914;-42
2023/04/24 06:52:54;;;;;;;10.37;7.43;;;;;;;;;;5014612;28;20401;-43
2023/04/24 06:55:20;;;;;;;11.43;8.20;;;;;;;;;;5019617;28;20936;-42
2023/04/24 06:57:46;;;;;;;12.17;7.57;;;;;;;;;;5015375;28;20474;-44
2023/04/24 07:00:13;;;;;;;9.77;7.23;;;;;;;;;;5014804;28;20413;-44
2023/04/24 07:02:39;;;;;;;10.33;7.70;;;;;;;;;;5015066;28;20496;-41
2023/04/24 07:05:06;;;;;;;11.33;8.03;;;;;;;;;;5013285;28;20966;-42
2023/04/24 07:07:32;;;;;;;8.77;6.63;;;;;;;;;;5013128;28;20422;-41
2023/04/24 07:09:58;;;;;;;10.63;7.53;;;;;;;;;;5014191;28;20406;-42
2023/04/24 07:12:24;;;;;;;9.50;8.20;;;;;;;;;;5015361;28;20430;-42
2023/04/24 07:14:51;;;;;;;11.60;8.07;;;;;;;;;;5018965;28;20421;-42
2023/04/24 07:17:17;;;;;;;8.33;7.50;;;;;;;;;;5012429;28;20901;-41
2023/04/24 07:19:43;;;;;;;12.43;7.43;;;;;;;;;;5011644;28;20444;-43
2023/04/24 07:22:11;;;;;;;8.63;7.20;;;;;;;;;;5000461;28;20427;-42
2023/04/24 07:24:37;;;;;;;8.20;6.93;;;;;;;;;;5013766;28;20846;-42
2023/04/24 07:27:03;;;;;;;7.63;6.73;;;;;;;;;;5001321;28;20418;-42
2023/04/24 07:29:29;;;;;;;7.63;5.57;;;;;;;;;;4993986;28;20440;-42
2023/04/24 07:31:56;;;;;;;8.10;6.00;;;;;;;;;;5006751;28;20409;-42
2023/04/24 07:34:22;;;;;;;7.30;6.50;;;;;;;;;;4993990;28;20427;-42
2023/04/24 07:36:48;;;;;;;8.03;6.70;;;;;;;;;;4993961;28;20485;-42
2023/04/24 07:39:14;;;;;;;9.30;7.10;;;;;;;;;;4993851;28;20517;-43
2023/04/24 07:41:40;;;;;;;7.67;6.53;;;;;;;;;;4994142;28;20826;-43
2023/04/24 07:44:06;;;;;;;7.50;5.87;;;;;;;;;;4994297;28;20905;-42
2023/04/24 07:46:32;;;;;;;9.27;6.30;;;;;;;;;;4993884;28;20417;-42
2023/04/24 07:48:59;;;;;;;6.43;5.67;;;;;;;;;;4998500;28;20465;-43
2023/04/24 07:51:27;;;;;;;6.73;5.57;;;;;;;;;;5012134;28;20464;-42
2023/04/24 07:53:54;;;;;;;6.27;4.73;;;;;;;;;;5021340;28;20430;-42
2023/04/24 07:56:20;;;;;;;5.90;4.83;;;;;;;;;;5025032;28;20903;-45
2023/04/24 07:58:46;;;;;;;6.20;4.60;;;;;;;;;;5019737;28;20468;-42
2023/04/24 08:01:12;;;;;;;5.17;3.83;;;;;;;;;;5019798;28;20503;-42
2023/04/24 08:03:38;;;;;;;5.03;3.63;;;;;;;;;;5028562;28;20404;-41
2023/04/24 08:06:04;;;;;;;5.00;3.90;;;;;;;;;;5032786;28;20400;-42
2023/04/24 08:08:30;;;;;;;4.20;3.37;;;;;;;;;;5032643;28;20425;-42
2023/04/24 08:10:56;;;;;;;5.53;3.73;;;;;;;;;;5032962;28;20486;-42
2023/04/24 08:13:22;;;;;;;5.50;3.80;;;;;;;;;;5031875;28;20403;-42
2023/04/24 08:15:48;;;;;;;5.80;3.47;;;;;;;;;;5032896;28;20849;-42
2023/04/24 08:18:15;;;;;;;6.43;4.77;;;;;;;;;;5032275;28;20484;-42
2023/04/24 08:20:41;;;;;;;5.17;3.97;;;;;;;;;;5014290;28;20428;-42
2023/04/24 08:23:07;;;;;;;4.50;3.03;;;;;;;;;;5025446;28;20861;-47
2023/04/24 08:25:35;;;;;;;3.37;3.07;;;;;;;;;;5022657;28;20544;-42
2023/04/24 08:28:01;;;;;;;3.47;3.17;;;;;;;;;;5014364;28;20443;-45
2023/04/24 08:30:26;;;;;;;2.43;2.13;;;;;;;;;;5014860;28;20418;-42
2023/04/24 08:32:52;;;;;;;3.87;2.60;;;;;;;;;;5017589;28;20412;-42
2023/04/24 08:35:19;;;;;;;2.93;2.13;;;;;;;;;;5014773;28;20464;-42
2023/04/24 08:37:45;;;;;;;4.10;2.50;;;;;;;;;;5019825;28;20438;-42
2023/04/24 08:40:15;;;;;;;3.17;2.37;;;;;;;;;;5021418;28;20979;-42
2023/04/24 08:42:43;;;;;;;3.13;2.33;;;;;;;;;;5019537;28;20772;-42
2023/04/24 08:45:10;;;;;;;3.17;2.17;;;;;;;;;;5012373;28;20455;-45
2023/04/24 08:47:36;;;;;;;2.17;1.97;;;;;;;;;;5023845;28;20481;-43
2023/04/24 08:50:05;;;;;;;3.23;2.33;;;;;;;;;;5030924;28;20491;-42
2023/04/24 08:52:31;;;;;;;3.33;2.43;;;;;;;;;;5014715;28;20466;-42
2023/04/24 08:54:58;;;;;;;3.30;2.67;;;;;;;;;;5011825;28;20426;-42
2023/04/24 08:57:25;;;;;;;3.10;2.23;;;;;;;;;;5014030;28;20438;-41
2023/04/24 08:59:52;;;;;;;4.03;3.17;;;;;;;;;;5019396;28;20749;-42
2023/04/24 09:02:18;;;;;;;1.97;1.77;;;;;;;;;;5013662;28;20447;-42
2023/04/24 09:04:45;;;;;;;3.80;2.53;;;;;;;;;;5023821;28;20480;-42
2023/04/24 09:07:12;;;;;;;3.37;2.60;;;;;;;;;;5031118;28;20458;-44
2023/04/24 09:09:39;;;;;;;8.73;6.10;;;;;;;;;;5011282;28;20410;-42
2023/04/24 09:12:05;;;;;;;3.60;3.03;;;;;;;;;;5016607;28;20403;-42
2023/04/24 09:14:32;;;;;;;4.30;3.50;;;;;;;;;;5011260;28;20406;-42
2023/04/24 09:16:58;;;;;;;3.33;2.83;;;;;;;;;;5010563;28;20411;-42
2023/04/24 09:19:24;;;;;;;4.90;3.67;;;;;;;;;;5009830;28;20462;-42
2023/04/24 09:21:53;;;;;;;7.40;3.90;;;;;;;;;;5010315;28;20795;-42
2023/04/24 09:24:23;;;;;;;3.83;3.43;;;;;;;;;;5010940;28;20820;-44
2023/04/24 09:26:57;;;;;;;3.90;3.50;;;;;;;;;;5011901;28;20488;-43
2023/04/24 09:29:23;;;;;;;4.87;3.33;;;;;;;;;;5011759;28;20431;-42
2023/04/24 09:31:49;;;;;;;7.87;3.20;;;;;;;;;;5012021;28;20401;-42
2023/04/24 09:34:15;;;;;;;4.00;3.60;;;;;;;;;;5011966;28;20405;-42
2023/04/24 09:36:42;;;;;;;6.20;4.50;;;;;;;;;;5011868;28;20413;-42
2023/04/24 09:39:12;;;;;;;5.43;4.23;;;;;;;;;;5011580;28;20425;-43
2023/04/24 09:41:48;;;;;;;6.40;4.07;;;;;;;;;;5011730;28;20921;-45
2023/04/24 09:44:21;;;;;;;3.73;3.23;;;;;;;;;;5011835;28;20971;-45
2023/04/24 09:46:55;;;;;;;5.50;4.00;;;;;;;;;;5011899;28;20399;-43
2023/04/24 09:49:23;;;;;;;5.47;3.37;;;;;;;;;;5011491;28;20429;-42
2023/04/24 09:51:49;;;;;;;4.97;3.33;;;;;;;;;;5010036;28;20433;-43
2023/04/24 09:54:16;;;;;;;4.40;3.47;;;;;;;;;;5011109;28;20439;-44
2023/04/24 09:56:44;;;;;;;6.10;4.70;;;;;;;;;;5012524;28;20975;-43
2023/04/24 09:59:10;;;;;;;5.33;3.60;;;;;;;;;;5011482;28;20426;-43
2023/04/24 10:01:38;;;;;;;6.63;4.97;;;;;;;;;;5011792;28;20420;-43
2023/04/24 10:04:04;;;;;;;5.13;4.00;;;;;;;;;;5011936;28;21004;-43
2023/04/24 10:06:36;;;;;;;5.23;4.00;;;;;;;;;;5012035;28;20410;-42
2023/04/24 10:09:03;;;;;;;13.10;6.23;;;;;;;;;;5010951;28;20971;-43
2023/04/24 10:11:30;;;;;;;5.83;4.03;;;;;;;;;;5011024;28;20488;-42
2023/04/24 10:13:57;;;;;;;5.57;4.57;;;;;;;;;;5011957;28;20775;-42
2023/04/24 10:16:23;;;;;;;4.80;3.20;;;;;;;;;;5011672;28;20408;-45
2023/04/24 10:18:49;;;;;;;5.60;4.17;;;;;;;;;;5011270;28;20536;-43
2023/04/24 10:21:17;;;;;;;9.97;4.63;;;;;;;;;;5010607;28;20931;-43
2023/04/24 10:23:43;;;;;;;7.83;4.47;;;;;;;;;;5010725;28;20467;-42
2023/04/24 10:26:17;;;;;;;9.47;4.00;;;;;;;;;;5011592;28;20416;-42
2023/04/24 10:28:47;;;;;;;4.77;3.70;;;;;;;;;;5011182;28;20407;-42
2023/04/24 10:31:13;;;;;;;8.20;4.57;;;;;;;;;;5011571;28;20405;-43
2023/04/24 10:33:41;;;;;;;4.33;3.83;;;;;;;;;;5011860;28;20746;-42
2023/04/24 10:36:08;;;;;;;6.97;4.70;;;;;;;;;;5012234;28;20400;-42
2023/04/24 10:38:34;;;;;;;6.70;4.20;;;;;;;;;;5014648;28;20426;-42
2023/04/24 10:41:19;;;;;;;14.43;5.97;;;;;;;;;;5015005;28;20403;-42
2023/04/24 10:43:45;;;;;;;8.43;5.73;;;;;;;;;;5014804;28;20523;-43
2023/04/24 10:46:17;;;;;;;8.60;5.87;;;;;;;;;;5014765;28;20401;-44
2023/04/24 10:48:44;;;;;;;7.47;5.57;;;;;;;;;;5014476;28;20467;-42
2023/04/24 10:51:14;;;;;;;8.70;6.73;;;;;;;;;;5014304;28;20808;-49
2023/04/24 10:53:40;;;;;;;9.83;6.80;;;;;;;;;;5012461;28;20471;-44
2023/04/24 10:56:07;;;;;;;8.97;5.47;;;;;;;;;;5014692;28;20457;-45
2023/04/24 10:58:44;;;;;;;9.57;5.73;;;;;;;;;;5014223;28;20434;-42
2023/04/24 11:01:23;;;;;;;10.90;5.70;;;;;;;;;;5014598;28;20639;-44
2023/04/24 11:03:55;;;;;;;10.73;7.00;;;;;;;;;;5014531;28;20482;-43
2023/04/24 11:06:29;;;;;;;10.80;6.77;;;;;;;;;;5014507;28;20499;-43
2023/04/24 11:08:59;;;;;;;11.53;7.23;;;;;;;;;;5013971;28;20528;-43
2023/04/24 11:11:28;;;;;;;10.53;6.40;;;;;;;;;;5014598;28;20478;-42
2023/04/24 11:13:54;;;;;;;11.00;6.27;;;;;;;;;;5014478;28;20510;-42
2023/04/24 11:16:22;;;;;;;15.17;7.67;;;;;;;;;;5014312;28;20547;-43
2023/04/24 11:18:53;;;;;;;12.00;7.30;;;;;;;;;;5013769;28;20457;-43
2023/04/24 11:21:20;;;;;;;11.50;7.17;;;;;;;;;;5014259;28;20405;-43
2023/04/24 11:23:46;;;;;;;12.27;7.07;;;;;;;;;;5011985;28;20441;-44
2023/04/24 11:26:12;;;;;;;11.90;7.83;;;;;;;;;;5014077;28;20438;-43
2023/04/24 11:28:44;;;;;;;11.67;6.50;;;;;;;;;;5013698;28;20421;-42
2023/04/24 11:31:29;;;;;;;7.20;5.80;;;;;;;;;;5014064;28;20821;-45
2023/04/24 11:33:55;;;;;;;12.07;7.47;;;;;;;;;;5013938;28;20429;-42
2023/04/24 11:36:21;;;;;;;14.40;7.17;;;;;;;;;;5014108;28;20476;-43
2023/04/24 11:38:47;;;;;;;23.57;8.17;;;;;;;;;;5013492;28;20453;-43
2023/04/24 11:41:13;;;;;;;16.37;7.77;;;;;;;;;;5013834;28;20491;-43
2023/04/24 11:43:40;;;;;;;13.13;8.03;;;;;;;;;;5013672;28;20934;-44
2023/04/24 11:46:06;;;;;;;9.10;7.60;;;;;;;;;;5013767;28;20407;-42
2023/04/24 11:48:36;;;;;;;14.03;7.70;;;;;;;;;;5013131;28;20450;-43
2023/04/24 11:51:02;;;;;;;18.27;8.60;;;;;;;;;;5013579;28;20400;-43
2023/04/24 11:53:28;;;;;;;11.93;8.03;;;;;;;;;;5012642;28;20435;-44
2023/04/24 11:55:54;;;;;;;14.70;7.63;;;;;;;;;;5012870;28;20514;-44
2023/04/24 11:58:26;;;;;;;20.80;9.20;;;;;;;;;;5013206;28;20427;-42
2023/04/24 12:00:59;;;;;;;13.67;8.13;;;;;;;;;;5012718;28;20443;-43
2023/04/24 12:03:25;;;;;;;17.00;8.20;;;;;;;;;;5013449;28;20425;-43
2023/04/24 12:05:51;;;;;;;13.57;7.90;;;;;;;;;;5013314;28;20527;-43
2023/04/24 12:08:29;;;;;;;10.13;7.70;;;;;;;;;;5013176;28;20918;-44
2023/04/24 12:10:55;;;;;;;19.17;7.90;;;;;;;;;;5013226;28;20405;-43
2023/04/24 12:13:21;;;;;;;12.70;6.13;;;;;;;;;;5013221;28;20395;-45
2023/04/24 12:15:47;;;;;;;13.10;5.97;;;;;;;;;;5013103;28;20452;-43
2023/04/24 12:18:13;;;;;;;14.00;6.97;;;;;;;;;;5012803;28;20991;-45
2023/04/24 12:20:41;;;;;;;14.03;6.93;;;;;;;;;;5013130;28;21040;-42
2023/04/24 12:23:07;;;;;;;10.87;6.37;;;;;;;;;;5011125;28;20442;-42
2023/04/24 12:25:33;;;;;;;6.77;4.93;;;;;;;;;;5012981;28;20458;-43
2023/04/24 12:28:05;;;;;;;13.87;6.20;;;;;;;;;;5017590;28;20450;-43
2023/04/24 12:30:36;;;;;;;10.27;5.33;;;;;;;;;;5012790;28;20546;-44
2023/04/24 12:33:02;;;;;;;12.20;5.30;;;;;;;;;;5012853;28;20407;-42
2023/04/24 12:35:29;;;;;;;12.00;4.93;;;;;;;;;;5012925;28;20407;-42
2023/04/24 12:37:55;;;;;;;9.77;5.40;;;;;;;;;;5012555;28;20510;-43
2023/04/24 12:40:22;;;;;;;10.43;5.37;;;;;;;;;;5012816;28;20463;-42
2023/04/24 12:42:51;;;;;;;7.10;4.60;;;;;;;;;;5012554;28;20407;-43
2023/04/24 12:45:18;;;;;;;11.80;4.57;;;;;;;;;;5012580;28;20460;-42
2023/04/24 12:47:44;;;;;;;11.40;5.30;;;;;;;;;;5012435;28;20919;-43
2023/04/24 12:50:15;;;;;;;12.90;5.63;;;;;;;;;;5012577;28;20437;-43
2023/04/24 12:52:42;;;;;;;7.20;5.17;;;;;;;;;;5012491;28;20767;-42
2023/04/24 12:55:08;;;;;;;12.30;5.17;;;;;;;;;;5010217;28;20435;-43
2023/04/24 12:57:35;;;;;;;9.63;5.33;;;;;;;;;;5012232;28;20428;-44
2023/04/24 13:00:01;;;;;;;8.77;5.43;;;;;;;;;;5011641;28;20433;-44
2023/04/24 13:02:31;;;;;;;9.83;5.87;;;;;;;;;;5011595;28;20518;-43
2023/04/24 13:04:57;;;;;;;7.93;5.03;;;;;;;;;;5010679;28;21181;-42
2023/04/24 13:07:23;;;;;;;6.40;4.67;;;;;;;;;;5012224;28;20413;-42
2023/04/24 13:09:50;;;;;;;15.87;6.93;;;;;;;;;;5011301;28;20410;-42
2023/04/24 13:12:16;;;;;;;7.50;4.60;;;;;;;;;;5011831;28;20407;-43
2023/04/24 13:14:42;;;;;;;9.27;5.20;;;;;;;;;;5012300;28;20426;-43
2023/04/24 13:17:09;;;;;;;7.90;4.70;;;;;;;;;;5012209;28;20765;-43
2023/04/24 13:19:39;;;;;;;4.97;4.17;;;;;;;;;;5010725;28;21073;-42
2023/04/24 13:22:05;;;;;;;9.60;4.70;;;;;;;;;;5012214;28;20407;-42
2023/04/24 13:24:31;;;;;;;8.73;4.77;;;;;;;;;;5009146;28;20463;-42
2023/04/24 13:26:57;;;;;;;5.30;4.43;;;;;;;;;;5012042;28;20415;-42
2023/04/24 13:29:23;;;;;;;5.60;3.83;;;;;;;;;;5011874;28;20415;-42
2023/04/24 13:31:54;;;;;;;6.80;3.90;;;;;;;;;;5012127;28;20410;-43
2023/04/24 13:34:20;;;;;;;8.33;5.17;;;;;;;;;;5012102;28;20605;-42
2023/04/24 13:36:46;;;;;;;8.43;4.00;;;;;;;;;;5011912;28;20408;-42
2023/04/24 13:39:13;;;;;;;5.70;4.00;;;;;;;;;;5011681;28;20434;-42
2023/04/24 13:41:39;;;;;;;6.07;3.30;;;;;;;;;;5012031;28;20408;-42
2023/04/24 13:44:05;;;;;;;5.63;3.23;;;;;;;;;;5011895;28;20454;-42
2023/04/24 13:46:31;;;;;;;6.87;3.40;;;;;;;;;;5012020;28;20415;-42
2023/04/24 13:48:57;;;;;;;4.13;3.00;;;;;;;;;;5011603;28;20449;-42
2023/04/24 13:51:23;;;;;;;4.80;3.70;;;;;;;;;;5011795;28;20399;-43
2023/04/24 13:53:49;;;;;;;5.60;3.60;;;;;;;;;;5010554;28;20515;-42
2023/04/24 13:56:15;;;;;;;5.73;3.53;;;;;;;;;;5011422;28;20510;-43
2023/04/24 13:58:41;;;;;;;6.13;3.60;;;;;;;;;;5011388;28;20423;-45
2023/04/24 14:01:07;;;;;;;8.10;3.60;;;;;;;;;;5011791;28;20849;-45
2023/04/24 14:03:34;;;;;;;4.37;3.13;;;;;;;;;;5011871;28;20426;-42
2023/04/24 14:06:00;;;;;;;3.83;2.57;;;;;;;;;;5011600;28;21156;-42
2023/04/24 14:08:26;;;;;;;3.27;2.47;;;;;;;;;;5011450;28;20419;-42
2023/04/24 14:10:52;;;;;;;6.50;3.10;;;;;;;;;;5013722;28;20410;-42
2023/04/24 14:13:18;;;;;;;8.90;3.13;;;;;;;;;;5015560;28;20875;-42
2023/04/24 14:15:44;;;;;;;5.40;3.20;;;;;;;;;;5015605;28;20753;-42
2023/04/24 14:18:10;;;;;;;11.27;5.80;;;;;;;;;;5014989;28;20438;-42
2023/04/24 14:20:36;;;;;;;6.70;3.10;;;;;;;;;;5015275;28;20431;-44
2023/04/24 14:23:02;;;;;;;8.00;2.60;;;;;;;;;;5015325;28;20493;-42
2023/04/24 14:25:28;;;;;;;5.47;2.63;;;;;;;;;;5012997;28;20467;-43
2023/04/24 14:27:54;;;;;;;7.20;3.10;;;;;;;;;;5015050;28;20420;-42
2023/04/24 14:30:20;;;;;;;6.10;2.83;;;;;;;;;;5014973;28;20482;-43
2023/04/24 14:32:46;;;;;;;10.33;3.60;;;;;;;;;;5015174;28;20479;-42